Time;durP1;ratioP1;P1;durP2;ratioP2;P2;SDS_P1;SDS_P2;PMS_P1;PMS_P2;Temp;Humidity;BMP_temperature;BMP_pressure;BME280_temperature;BME280_humidity;BME280_pressure;Samples;Min_cycle;Max_cycle;Signal;HPM_P1;HPM_P2
2023/06/24 00:01:56;;;;;;;;;5.00;3.00;;;;;24.19;100.00;102227.22;5042840;28;63526;-77
2023/06/24 00:04:23;;;;;;;;;3.00;3.00;;;;;24.19;100.00;102224.53;5049245;28;45503;-77
2023/06/24 00:06:48;;;;;;;;;4.00;4.00;;;;;24.15;100.00;102217.41;5049395;28;46510;-75
2023/06/24 00:09:13;;;;;;;;;4.00;4.00;;;;;24.14;100.00;102218.34;5053718;28;66946;-77
2023/06/24 00:11:38;;;;;;;;;4.33;3.33;;;;;24.13;100.00;102221.06;5045933;28;62374;-77
2023/06/24 00:14:06;;;;;;;;;4.00;4.00;;;;;24.10;100.00;102222.03;5048906;28;64944;-77
2023/06/24 00:16:31;;;;;;;;;4.00;4.00;;;;;24.07;100.00;102219.38;5050558;28;47607;-77
2023/06/24 00:18:58;;;;;;;;;3.33;3.33;;;;;24.04;100.00;102214.06;5046979;28;66362;-78
2023/06/24 00:21:29;;;;;;;;;5.00;5.00;;;;;24.04;100.00;102225.75;5052708;28;45513;-77
2023/06/24 00:23:57;;;;;;;;;6.33;5.00;;;;;24.04;100.00;102224.88;5048955;28;45609;-78
2023/06/24 00:26:23;;;;;;;;;4.00;4.00;;;;;24.01;100.00;102217.72;5054528;28;47471;-77
2023/06/24 00:28:48;;;;;;;;;3.67;3.33;;;;;24.01;100.00;102223.13;5054607;28;45551;-78
2023/06/24 00:31:13;;;;;;;;;6.00;5.00;;;;;24.00;100.00;102215.06;5050214;28;64647;-77
2023/06/24 00:33:39;;;;;;;;;4.00;3.00;;;;;23.97;100.00;102217.81;5059440;28;45411;-77
2023/06/24 00:36:08;;;;;;;;;5.67;3.00;;;;;23.94;100.00;102216.09;5055226;28;46555;-80
2023/06/24 00:38:33;;;;;;;;;6.00;4.33;;;;;23.87;100.00;102210.88;5058096;28;45468;-80
2023/06/24 00:40:59;;;;;;;;;6.00;5.00;;;;;23.75;100.00;102215.59;5057665;28;46514;-78
2023/06/24 00:43:24;;;;;;;;;5.00;3.67;;;;;23.66;100.00;102213.13;5051241;28;45425;-78
2023/06/24 00:45:50;;;;;;;;;7.00;4.00;;;;;23.57;100.00;102215.09;5037227;28;47199;-78
2023/06/24 00:48:16;;;;;;;;;5.00;3.33;;;;;23.49;100.00;102220.66;5057093;28;45571;-79
2023/06/24 00:50:45;;;;;;;;;5.00;5.00;;;;;23.40;100.00;102221.72;5056294;28;45368;-78
2023/06/24 00:53:11;;;;;;;;;5.33;4.00;;;;;23.30;100.00;102220.13;5056416;28;46431;-79
2023/06/24 00:55:37;;;;;;;;;7.33;5.00;;;;;23.22;100.00;102217.59;5047626;28;47279;-76
2023/06/24 00:58:02;;;;;;;;;4.67;4.67;;;;;23.16;100.00;102217.69;5048703;28;45368;-76
2023/06/24 01:00:27;;;;;;;;;7.00;6.00;;;;;23.12;100.00;102215.09;5046397;28;45753;-76
2023/06/24 01:02:53;;;;;;;;;6.00;4.67;;;;;23.12;100.00;102225.88;5047512;28;62194;-75
2023/06/24 01:05:23;;;;;;;;;5.67;4.33;;;;;23.10;100.00;102217.81;5053615;28;68376;-75
2023/06/24 01:07:55;;;;;;;;;4.00;4.00;;;;;23.11;100.00;102219.56;5029658;28;45469;-78
2023/06/24 01:10:22;;;;;;;;;3.00;3.00;;;;;23.10;100.00;102220.50;5055258;28;45142;-78
2023/06/24 01:12:47;;;;;;;;;3.67;3.67;;;;;23.10;100.00;102223.19;5054232;28;45621;-77
2023/06/24 01:15:13;;;;;;;;;5.00;5.00;;;;;23.08;100.00;102222.34;5048456;28;46609;-78
2023/06/24 01:17:46;;;;;;;;;4.00;4.00;;;;;23.06;100.00;102221.47;5032112;28;45388;-75
2023/06/24 01:20:21;;;;;;;;;3.00;3.00;;;;;23.04;100.00;102217.94;5032680;28;45451;-76
2023/06/24 01:23:21;;;;;;;;;5.00;4.00;;;;;23.01;100.00;102212.63;5055215;28;45408;-76
2023/06/24 01:26:15;;;;;;;;;3.67;3.33;;;;;22.99;100.00;102209.03;5030665;28;46583;-76
2023/06/24 01:29:11;;;;;;;;;4.67;4.67;;;;;22.96;100.00;102207.31;5057446;28;45413;-76
2023/06/24 01:31:36;;;;;;;;;5.00;3.00;;;;;22.93;100.00;102199.28;5053040;28;45453;-76
2023/06/24 01:34:23;;;;;;;;;3.67;3.00;;;;;22.91;100.00;102206.50;5048627;28;45624;-76
2023/06/24 01:37:01;;;;;;;;;4.67;3.00;;;;;22.87;100.00;102206.53;5044883;28;45550;-76
2023/06/24 01:39:27;;;;;;;;;4.00;4.00;;;;;22.82;100.00;102203.03;5056906;28;45583;-77
2023/06/24 01:42:03;;;;;;;;;4.00;4.00;;;;;22.77;100.00;102202.25;5031562;28;60801;-78
2023/06/24 01:44:29;;;;;;;;;5.67;3.67;;;;;22.70;100.00;102207.75;5039556;28;45434;-78
2023/06/24 01:46:57;;;;;;;;;4.67;4.00;;;;;;;;5039968;28;46342;-76
2023/06/24 01:49:23;;;;;;;;;3.67;3.00;;;;;22.61;100.00;102204.31;5053010;28;45470;-76
2023/06/24 01:51:50;;;;;;;;;4.00;4.00;;;;;22.56;100.00;102201.69;5057105;28;45467;-75
2023/06/24 01:54:19;;;;;;;;;3.67;3.67;;;;;22.54;100.00;102208.03;5032476;28;60830;-78
2023/06/24 01:56:47;;;;;;;;;3.67;3.67;;;;;22.49;100.00;102205.41;5039603;28;47512;-76
2023/06/24 01:59:14;;;;;;;;;10.00;5.67;;;;;22.43;100.00;102197.44;5032397;28;45344;-77
2023/06/24 02:01:40;;;;;;;;;6.67;4.00;;;;;22.44;100.00;102205.47;5039646;28;45435;-76
2023/06/24 02:04:07;;;;;;;;;7.67;5.00;;;;;22.44;100.00;102212.66;5054885;28;45359;-78
2023/06/24 02:06:32;;;;;;;;;6.00;6.00;;;;;22.40;100.00;102203.75;5039138;28;45859;-75
2023/06/24 02:08:59;;;;;;;;;4.33;4.33;;;;;22.40;100.00;102214.50;5025990;28;45335;-74
2023/06/24 02:11:24;;;;;;;;;5.33;4.33;;;;;22.38;100.00;102204.69;5051810;28;45523;-77
2023/06/24 02:13:51;;;;;;;;;9.67;6.00;;;;;22.37;100.00;102195.75;5036709;28;45489;-76
2023/06/24 02:16:17;;;;;;;;;7.00;4.67;;;;;22.36;100.00;102210.09;5053033;28;45694;-76
2023/06/24 02:18:43;;;;;;;;;6.33;6.33;;;;;22.33;100.00;102201.19;5052849;28;45409;-78
2023/06/24 02:21:09;;;;;;;;;8.33;6.67;;;;;22.34;100.00;102213.72;5050798;28;61399;-77
2023/06/24 02:23:36;;;;;;;;;6.00;6.00;;;;;22.33;100.00;102210.16;5033468;28;45582;-76
2023/06/24 02:26:02;;;;;;;;;8.33;5.00;;;;;22.31;100.00;102208.38;5045055;28;47060;-77
2023/06/24 02:28:28;;;;;;;;;7.00;7.00;;;;;22.31;100.00;102214.66;5037980;28;62842;-77
2023/06/24 02:30:54;;;;;;;;;5.33;4.00;;;;;22.29;100.00;102210.22;5048988;28;64439;-77
2023/06/24 02:33:19;;;;;;;;;5.00;5.00;;;;;22.29;100.00;102213.78;5055494;28;59119;-78
2023/06/24 02:35:46;;;;;;;;;7.00;5.00;;;;;22.25;100.00;102214.75;5055521;28;68172;-76
2023/06/24 02:38:11;;;;;;;;;5.00;5.00;;;;;22.24;100.00;102218.38;5055769;28;45475;-77
2023/06/24 02:40:36;;;;;;;;;6.67;5.00;;;;;22.21;100.00;102213.00;5027749;28;57493;-76
2023/06/24 02:43:02;;;;;;;;;4.00;4.00;;;;;22.20;100.00;102214.81;5043837;28;58418;-75
2023/06/24 02:45:28;;;;;;;;;4.00;4.00;;;;;22.19;100.00;102214.84;5043366;28;64150;-77
2023/06/24 02:47:54;;;;;;;;;6.33;5.00;;;;;22.15;100.00;102210.41;5042429;28;66234;-76
2023/06/24 02:50:21;;;;;;;;;5.67;5.00;;;;;22.11;100.00;102204.22;5053711;28;45412;-76
2023/06/24 02:52:47;;;;;;;;;6.00;4.67;;;;;22.12;100.00;102208.69;5056278;28;45646;-76
2023/06/24 02:55:13;;;;;;;;;5.67;4.67;;;;;22.10;100.00;102214.94;5053836;28;46270;-76
2023/06/24 02:57:40;;;;;;;;;8.00;6.00;;;;;22.07;100.00;102207.81;5031696;28;69801;-77
2023/06/24 03:00:11;;;;;;;;;6.00;6.00;;;;;22.03;100.00;102205.19;5051652;28;45342;-77
2023/06/24 03:02:37;;;;;;;;;9.33;7.67;;;;;22.02;100.00;102200.75;5047558;28;45364;-77
2023/06/24 03:05:03;;;;;;;;;7.00;6.00;;;;;22.03;100.00;102210.56;5030131;28;47446;-77
2023/06/24 03:07:30;;;;;;;;;5.67;5.67;;;;;22.02;100.00;102206.13;5056848;28;45467;-77
2023/06/24 03:09:55;;;;;;;;;6.33;6.33;;;;;21.98;100.00;102200.78;5049315;28;45348;-77
2023/06/24 03:12:20;;;;;;;;;7.00;5.00;;;;;21.96;100.00;102204.41;5046241;28;59932;-76
2023/06/24 03:14:46;;;;;;;;;6.00;6.00;;;;;21.94;100.00;102207.13;5045031;28;62525;-78
2023/06/24 03:17:11;;;;;;;;;6.67;6.67;;;;;21.91;100.00;102204.47;5047689;28;65990;-76
2023/06/24 03:19:37;;;;;;;;;4.00;4.00;;;;;21.89;100.00;102205.38;5033570;28;45475;-76
2023/06/24 03:22:03;;;;;;;;;5.33;5.33;;;;;21.85;100.00;102199.19;5037254;28;45135;-76
2023/06/24 03:24:29;;;;;;;;;6.00;4.00;;;;;21.84;100.00;102205.47;5048938;28;47593;-76
2023/06/24 03:26:56;;;;;;;;;8.00;7.00;;;;;21.82;100.00;102201.91;5054772;28;45376;-75
2023/06/24 03:29:22;;;;;;;;;7.00;6.00;;;;;21.76;100.00;102202.00;5053374;28;45328;-77
2023/06/24 03:31:48;;;;;;;;;8.00;7.00;;;;;21.77;100.00;102194.81;5051184;28;45356;-76
2023/06/24 03:34:13;;;;;;;;;7.33;7.33;;;;;21.75;100.00;102205.59;5052346;28;46593;-76
2023/06/24 03:36:38;;;;;;;;;9.67;7.00;;;;;21.71;100.00;102199.34;5051761;28;63528;-76
2023/06/24 03:39:04;;;;;;;;;10.67;6.00;;;;;21.67;100.00;102200.28;5046978;28;60197;-76
2023/06/24 03:41:30;;;;;;;;;7.67;7.00;;;;;21.68;100.00;102206.59;5047457;28;45550;-77
2023/06/24 03:43:55;;;;;;;;;8.33;7.00;;;;;21.64;100.00;102205.72;5044812;28;46505;-76
2023/06/24 03:46:21;;;;;;;;;6.00;6.00;;;;;21.64;100.00;102204.84;5055775;28;45288;-76
2023/06/24 03:48:46;;;;;;;;;6.00;6.00;;;;;21.61;100.00;102208.44;5053608;28;45381;-76
2023/06/24 03:51:12;;;;;;;;;5.00;5.00;;;;;21.60;100.00;102213.84;5044264;28;45212;-76
2023/06/24 03:53:37;;;;;;;;;6.33;6.33;;;;;21.57;100.00;102224.63;5043907;28;57310;-76
2023/06/24 03:56:03;;;;;;;;;6.00;6.00;;;;;21.52;100.00;102227.41;5037853;28;64786;-77
2023/06/24 03:58:28;;;;;;;;;5.00;5.00;;;;;21.49;100.00;102216.66;5049629;28;45351;-77
2023/06/24 04:00:56;;;;;;;;;6.67;5.33;;;;;21.49;100.00;102223.84;5037401;28;45428;-76
2023/06/24 04:03:21;;;;;;;;;7.00;6.00;;;;;21.50;100.00;102225.63;5054535;28;47096;-75
2023/06/24 04:05:47;;;;;;;;;9.00;4.67;;;;;21.48;100.00;102231.03;5053728;28;45329;-78
2023/06/24 04:08:12;;;;;;;;;5.00;5.00;;;;;21.47;100.00;102228.38;5055086;28;61560;-75
2023/06/24 04:10:37;;;;;;;;;6.33;5.00;;;;;21.47;100.00;102229.25;5036235;28;45410;-76
2023/06/24 04:13:03;;;;;;;;;8.00;6.00;;;;;21.42;100.00;102229.31;5050984;28;68489;-77
2023/06/24 04:15:28;;;;;;;;;4.33;4.33;;;;;21.43;100.00;102228.38;5047763;28;45375;-76
2023/06/24 04:17:53;;;;;;;;;5.00;5.00;;;;;21.42;100.00;102231.09;5052057;28;61962;-76
2023/06/24 04:20:19;;;;;;;;;6.33;5.00;;;;;21.42;100.00;102225.72;5050811;28;45339;-78
2023/06/24 04:22:44;;;;;;;;;5.00;5.00;;;;;21.43;100.00;102228.38;5051276;28;57945;-75
2023/06/24 04:25:09;;;;;;;;;4.33;4.33;;;;;21.44;100.00;102229.28;5046399;28;66289;-78
2023/06/24 04:27:35;;;;;;;;;6.33;6.33;;;;;21.44;100.00;102229.28;5053926;28;45471;-76
2023/06/24 04:30:02;;;;;;;;;4.00;4.00;;;;;21.43;100.00;102228.38;5036825;28;45497;-76
2023/06/24 04:32:27;;;;;;;;;7.00;4.00;;;;;21.44;100.00;102232.84;5048114;28;45818;-77
2023/06/24 04:34:53;;;;;;;;;6.00;5.00;;;;;21.46;100.00;102227.44;5052560;28;66434;-76
2023/06/24 04:37:18;;;;;;;;;3.67;3.67;;;;;21.46;100.00;102232.81;5049970;28;45379;-76
2023/06/24 04:39:44;;;;;;;;;5.00;5.00;;;;;21.48;100.00;102233.72;5053165;28;62674;-78
2023/06/24 04:42:10;;;;;;;;;11.67;6.00;;;;;21.47;100.00;102226.56;5052886;28;64855;-75
2023/06/24 04:44:35;;;;;;;;;4.00;4.00;;;;;21.47;100.00;102228.38;5054144;28;46069;-76
2023/06/24 04:47:01;;;;;;;;;5.33;5.33;;;;;21.50;100.00;102225.63;5055229;28;45508;-75
2023/06/24 04:49:26;;;;;;;;;5.67;5.67;;;;;21.50;100.00;102236.38;5051919;28;45222;-76
2023/06/24 04:51:52;;;;;;;;;7.00;6.00;;;;;21.48;100.00;102225.66;5052385;28;66580;-75
2023/06/24 04:54:17;;;;;;;;;8.00;5.00;;;;;21.51;100.00;102232.78;5051442;28;64244;-75
2023/06/24 04:56:44;;;;;;;;;5.00;5.00;;;;;21.50;100.00;102229.19;5059338;28;45295;-75
2023/06/24 04:59:09;;;;;;;;;5.67;5.67;;;;;21.53;100.00;102239.94;5049725;28;45294;-77
2023/06/24 05:01:34;;;;;;;;;5.00;5.00;;;;;21.53;100.00;102242.63;5052141;28;63974;-75
2023/06/24 05:04:00;;;;;;;;;5.00;4.67;;;;;21.57;100.00;102238.06;5027110;28;45370;-77
2023/06/24 05:06:25;;;;;;;;;8.67;6.00;;;;;21.59;100.00;102233.59;5052060;28;45524;-77
2023/06/24 05:08:50;;;;;;;;;4.00;3.00;;;;;21.58;100.00;102232.69;5044677;28;45464;-77
2023/06/24 05:11:16;;;;;;;;;5.67;5.67;;;;;21.61;100.00;102235.31;5056111;28;66107;-76
2023/06/24 05:13:41;;;;;;;;;6.67;5.00;;;;;21.60;100.00;102233.56;5056658;28;65841;-77
2023/06/24 05:16:06;;;;;;;;;6.33;5.00;;;;;21.64;100.00;102239.78;5055690;28;61482;-75
2023/06/24 05:18:32;;;;;;;;;4.00;4.00;;;;;21.64;100.00;102243.38;5055082;28;53658;-76
2023/06/24 05:20:57;;;;;;;;;6.00;4.00;;;;;21.63;100.00;102228.16;5052018;28;68847;-77
2023/06/24 05:23:22;;;;;;;;;6.33;6.00;;;;;21.66;100.00;102232.59;5057997;28;63503;-75
2023/06/24 05:25:48;;;;;;;;;8.33;5.00;;;;;21.70;100.00;102237.03;5048573;28;62113;-76
2023/06/24 05:28:13;;;;;;;;;5.67;4.00;;;;;21.70;100.00;102239.72;5052621;28;45502;-77
2023/06/24 05:30:38;;;;;;;;;4.33;4.33;;;;;21.73;100.00;102234.28;5056659;28;70160;-76
2023/06/24 05:33:04;;;;;;;;;5.67;5.67;;;;;21.75;100.00;102240.53;5056224;28;45451;-76
2023/06/24 05:35:29;;;;;;;;;5.00;5.00;;;;;21.78;100.00;102240.50;5054981;28;61558;-77
2023/06/24 05:37:54;;;;;;;;;6.00;4.67;;;;;21.80;100.00;102238.69;5058437;28;45534;-76
2023/06/24 05:40:20;;;;;;;;;6.00;6.00;;;;;21.81;100.00;102232.38;5051677;28;47290;-76
2023/06/24 05:42:45;;;;;;;;;5.00;3.67;;;;;21.84;100.00;102243.13;5056839;28;54916;-76
2023/06/24 05:45:10;;;;;;;;;4.00;4.00;;;;;21.86;100.00;102243.09;5053293;28;60209;-76
2023/06/24 05:47:37;;;;;;;;;4.00;4.00;;;;;21.87;100.00;102237.69;5050641;28;56061;-77
2023/06/24 05:50:03;;;;;;;;;5.00;4.00;;;;;21.89;100.00;102237.66;5053532;28;47863;-76
2023/06/24 05:52:29;;;;;;;;;5.00;3.67;;;;;21.93;100.00;102236.72;5045936;28;45412;-78
2023/06/24 05:54:54;;;;;;;;;4.33;3.00;;;;;21.95;100.00;102237.59;5044109;28;45288;-76
2023/06/24 05:57:19;;;;;;;;;4.33;3.67;;;;;21.98;100.00;102234.84;5041038;28;45369;-76
2023/06/24 05:59:44;;;;;;;;;3.33;3.33;;;;;21.98;100.00;102233.03;5052582;28;69996;-76
2023/06/24 06:02:10;;;;;;;;;3.00;3.00;;;;;22.03;100.00;102234.78;5037548;28;63422;-76
2023/06/24 06:04:35;;;;;;;;;4.00;4.00;;;;;22.03;100.00;102232.97;5051607;28;62312;-76
2023/06/24 06:07:00;;;;;;;;;3.33;3.33;;;;;22.06;100.00;102227.56;5045671;28;55870;-76
2023/06/24 06:09:26;;;;;;;;;4.00;4.00;;;;;22.07;100.00;102232.03;5047892;28;46930;-77
2023/06/24 06:11:51;;;;;;;;;5.00;3.67;;;;;22.13;100.00;102236.47;5044383;28;67287;-76
2023/06/24 06:14:16;;;;;;;;;6.33;5.00;;;;;22.16;100.00;102236.44;5043649;28;64927;-76
2023/06/24 06:16:42;;;;;;;;;4.33;4.00;;;;;22.16;100.00;102231.06;5048409;28;62741;-76
2023/06/24 06:21:41;;;;;;;;;5.00;4.33;;;;;22.23;100.00;102235.41;5035341;28;45447;-77
2023/06/24 06:24:06;;;;;;;;;4.00;4.00;;;;;22.23;100.00;102230.03;5032761;28;65148;-78
2023/06/24 06:26:32;;;;;;;;;4.00;3.00;;;;;22.27;100.00;102230.91;5035316;28;45568;-77
2023/06/24 06:28:57;;;;;;;;;5.00;5.00;;;;;22.29;100.00;102232.63;5036713;28;52363;-76
2023/06/24 06:31:24;;;;;;;;;5.00;4.33;;;;;22.32;100.00;102229.91;5035712;28;62978;-77
2023/06/24 06:33:50;;;;;;;;;4.33;4.33;;;;;22.32;100.00;102227.22;5036498;28;45445;-78
2023/06/24 06:36:15;;;;;;;;;6.33;4.33;;;;;22.35;100.00;102232.53;5035367;28;45619;-78
2023/06/24 06:38:40;;;;;;;;;6.00;6.00;;;;;22.36;100.00;102237.00;5034573;28;45435;-78
2023/06/24 06:41:06;;;;;;;;;6.67;4.00;;;;;22.38;100.00;102237.00;5035406;28;64196;-78
2023/06/24 06:43:33;;;;;;;;;4.33;2.00;;;;;22.41;100.00;102232.44;5035220;28;60482;-78
2023/06/24 06:45:58;;;;;;;;;5.67;5.00;;;;;22.46;100.00;102233.25;5036471;28;45653;-78
2023/06/24 06:48:23;;;;;;;;;5.00;4.00;;;;;22.49;100.00;102230.53;5036450;28;46440;-77
2023/06/24 06:50:49;;;;;;;;;5.33;3.33;;;;;22.55;100.00;102240.31;5036545;28;45265;-77
2023/06/24 06:53:14;;;;;;;;;3.00;3.00;;;;;22.59;100.00;102235.75;5035807;28;45344;-77
2023/06/24 06:55:40;;;;;;;;;5.67;4.00;;;;;22.62;100.00;102238.38;5035104;28;60079;-80
2023/06/24 06:58:05;;;;;;;;;5.33;3.00;;;;;22.65;100.00;102241.03;5034343;28;69830;-76
2023/06/24 07:00:31;;;;;;;;;3.67;3.67;;;;;22.68;100.00;102240.97;5034113;28;45494;-76
2023/06/24 07:02:56;;;;;;;;;4.00;2.00;;;;;22.68;100.00;102231.09;5017262;28;65150;-76
2023/06/24 07:05:21;;;;;;;;;3.00;3.00;;;;;22.72;100.00;102231.94;5034694;28;62810;-76
2023/06/24 07:07:47;;;;;;;;;5.33;5.00;;;;;22.74;100.00;102232.78;5034715;28;45356;-78
2023/06/24 07:10:12;;;;;;;;;3.00;3.00;;;;;22.74;100.00;102230.09;5036037;28;49338;-78
2023/06/24 07:12:39;;;;;;;;;5.00;3.00;;;;;22.73;100.00;102229.22;5036107;28;45382;-76
2023/06/24 07:15:04;;;;;;;;;4.33;3.67;;;;;22.73;100.00;102229.22;5036408;28;45722;-78
2023/06/24 07:17:30;;;;;;;;;3.33;3.33;;;;;22.79;100.00;102227.31;5035592;28;47170;-76
2023/06/24 07:19:55;;;;;;;;;4.33;3.67;;;;;22.83;100.00;102223.66;5033495;28;67211;-78
2023/06/24 07:22:20;;;;;;;;;4.67;3.00;;;;;22.87;100.00;102220.00;5034976;28;62255;-76
2023/06/24 07:24:46;;;;;;;;;5.00;4.00;;;;;22.91;100.00;102216.38;5034909;28;63196;-75
2023/06/24 07:27:11;;;;;;;;;6.00;4.33;;;;;22.92;100.00;102219.03;5035341;28;55414;-76
2023/06/24 07:29:36;;;;;;;;;5.00;3.67;;;;;22.97;100.00;102219.84;5035647;28;45408;-75
2023/06/24 07:32:02;;;;;;;;;4.33;3.00;;;;;23.01;100.00;102215.31;5035701;28;45348;-78
2023/06/24 07:34:29;;;;;;;;;4.00;3.00;;;;;23.05;100.00;102219.69;5035030;28;45332;-81
2023/06/24 07:36:54;;;;;;;;;3.00;3.00;;;;;23.07;100.00;102212.50;5033815;28;47565;-81
2023/06/24 07:39:20;;;;;;;;;6.00;4.00;;;;;23.12;100.00;102218.69;5033702;28;45479;-80
2023/06/24 07:41:45;;;;;;;;;5.00;4.00;;;;;23.16;100.00;102214.09;5017675;28;45831;-80
2023/06/24 07:44:10;;;;;;;;;3.00;3.00;;;;;23.20;100.00;102218.53;5034778;28;45316;-81
2023/06/24 07:46:36;;;;;;;;;4.67;4.67;;;;;23.22;100.00;102220.28;5034661;28;46397;-81
2023/06/24 07:49:01;;;;;;;;;3.00;3.00;;;;;23.26;100.00;102221.09;5035410;28;45244;-82
2023/06/24 07:51:27;;;;;;;;;5.33;3.67;;;;;23.30;100.00;102227.31;5033805;28;65702;-82
2023/06/24 07:53:52;;;;;;;;;3.00;2.67;;;;;23.32;100.00;102214.69;5034434;28;62828;-80
2023/06/24 07:56:18;;;;;;;;;3.00;3.00;;;;;23.36;100.00;102211.91;5034875;28;47864;-81
2023/06/24 07:58:43;;;;;;;;;3.00;3.00;;;;;23.42;100.00;102208.19;5033701;28;64930;-81
2023/06/24 08:01:08;;;;;;;;;2.00;2.00;;;;;23.47;100.00;102207.19;5035313;28;62070;-81
2023/06/24 08:03:36;;;;;;;;;4.00;3.00;;;;;23.48;100.00;102206.25;5034914;28;54278;-80
2023/06/24 08:06:02;;;;;;;;;4.33;4.33;;;;;23.55;100.00;102212.44;5033551;28;46692;-80
2023/06/24 08:08:27;;;;;;;;;3.00;1.00;;;;;23.56;100.00;102202.53;5034796;28;45462;-81
2023/06/24 08:10:52;;;;;;;;;3.00;3.00;;;;;23.63;100.00;102213.16;5034131;28;63274;-81
2023/06/24 08:13:18;;;;;;;;;2.33;2.33;;;;;23.67;100.00;102211.31;5034937;28;63818;-82
2023/06/24 08:15:44;;;;;;;;;6.00;3.00;;;;;23.73;100.00;102203.97;5033098;28;65034;-81
2023/06/24 08:18:09;;;;;;;;;3.00;3.00;;;;;23.76;100.00;102197.63;5035746;28;45835;-81
2023/06/24 08:20:34;;;;;;;;;5.33;3.00;;;;;23.83;100.00;102203.78;5032496;28;45929;-80
2023/06/24 08:23:00;;;;;;;;;2.33;2.33;;;;;23.87;100.00;102195.59;5034465;28;62956;-81
2023/06/24 08:25:26;;;;;;;;;2.00;2.00;;;;;23.89;100.00;102199.13;5036768;28;46406;-80
2023/06/24 08:27:52;;;;;;;;;3.00;3.00;;;;;23.93;100.00;102198.13;5038167;28;45390;-81
2023/06/24 08:30:18;;;;;;;;;2.33;2.33;;;;;23.97;100.00;102188.13;5038144;28;60455;-81
2023/06/24 08:32:43;;;;;;;;;2.00;2.00;;;;;24.02;100.00;102194.31;5038171;28;46386;-80
2023/06/24 08:35:09;;;;;;;;;2.67;2.67;;;;;24.08;100.00;102190.63;5038122;28;48455;-80
2023/06/24 08:37:36;;;;;;;;;2.67;2.67;;;;;24.13;100.00;102188.66;5038005;28;45321;-82
2023/06/24 08:40:04;;;;;;;;;2.67;2.00;;;;;24.15;100.00;102185.03;5038427;28;45188;-82
2023/06/24 08:42:29;;;;;;;;;2.00;2.00;;;;;24.20;100.00;102180.41;5037644;28;45392;-81
2023/06/24 08:44:54;;;;;;;;;3.00;3.00;;;;;24.27;100.00;102183.84;5009871;28;75262;-81
2023/06/24 08:47:20;;;;;;;;;2.00;2.00;;;;;24.31;100.00;102183.72;5037213;28;65167;-81
2023/06/24 08:49:57;;;;;;;;;3.67;3.67;;;;;24.35;100.00;102181.88;5035959;28;64602;-80
2023/06/24 08:52:25;;;;;;;;;4.00;2.00;;;;;24.42;100.00;102180.78;5022906;28;45625;-82
2023/06/24 08:54:51;;;;;;;;;3.00;3.00;;;;;24.45;100.00;102177.09;5018719;28;47091;-81
2023/06/24 08:57:16;;;;;;;;;2.33;2.33;;;;;24.48;100.00;102161.72;5034803;28;45427;-80
2023/06/24 08:59:42;;;;;;;;;4.00;3.00;;;;;24.53;100.00;102170.59;5036854;28;45586;-77
2023/06/24 09:02:08;;;;;;;;;4.00;2.00;;;;;24.60;100.00;102171.31;5040475;28;45563;-77
2023/06/24 09:04:34;;;;;;;;;2.67;2.67;;;;;24.66;100.00;102170.25;5037426;28;46381;-77
2023/06/24 09:06:59;;;;;;;;;4.33;4.00;;;;;24.70;100.00;102161.16;5037412;28;45361;-79
2023/06/24 09:09:25;;;;;;;;;3.33;3.33;;;;;24.77;100.00;102169.09;5032647;28;58403;-77
2023/06/24 09:12:00;;;;;;;;;5.00;3.67;;;;;24.81;100.00;102159.94;5036160;28;60588;-78
2023/06/24 09:14:27;;;;;;;;;3.00;3.00;;;;;24.85;100.00;102160.75;5037339;28;46124;-76
2023/06/24 09:16:56;;;;;;;;;3.33;2.33;;;;;24.89;100.00;102161.56;5038686;28;45574;-78
2023/06/24 09:19:36;;;;;;;;;5.33;2.00;;;;;24.93;100.00;102152.41;5037194;28;45201;-76
2023/06/24 09:22:03;;;;;;;;;4.00;4.00;;;;;24.99;100.00;102158.56;5037085;28;45575;-76
2023/06/24 09:24:31;;;;;;;;;3.67;3.67;;;;;25.05;100.00;102154.81;5019510;28;46750;-76
2023/06/24 09:26:59;;;;;;;;;5.00;3.00;;;;;25.10;100.00;102150.19;5034480;28;45554;-78
2023/06/24 09:29:28;;;;;;;;;3.00;3.00;;;;;25.15;100.00;102147.34;5035053;28;45372;-77
2023/06/24 09:31:55;;;;;;;;;3.67;3.67;;;;;25.19;100.00;102147.19;5038048;28;45372;-77
2023/06/24 09:34:21;;;;;;;;;4.00;4.00;;;;;25.24;100.00;102138.97;5036934;28;46621;-77
2023/06/24 09:36:52;;;;;;;;;4.33;2.67;;;;;25.28;100.00;102135.25;5035219;28;45487;-78
2023/06/24 09:39:17;;;;;;;;;2.33;2.33;;;;;25.31;100.00;102130.63;5037326;28;45297;-77
2023/06/24 09:41:43;;;;;;;;;3.00;3.00;;;;;25.33;100.00;102128.75;5035349;28;45429;-76
2023/06/24 09:44:10;;;;;;;;;3.67;3.67;;;;;25.38;100.00;102128.63;5037463;28;45657;-77
2023/06/24 09:46:37;;;;;;;;;3.33;3.33;;;;;25.44;100.00;102127.56;5037106;28;45451;-77
2023/06/24 09:49:03;;;;;;;;;2.00;2.00;;;;;25.46;100.00;102121.19;5037677;28;45299;-77
2023/06/24 09:51:28;;;;;;;;;4.67;3.00;;;;;25.48;100.00;102113.91;5037611;28;45435;-76
2023/06/24 09:53:56;;;;;;;;;4.00;4.00;;;;;25.53;100.00;102109.22;5035560;28;70744;-79
2023/06/24 09:56:21;;;;;;;;;4.33;3.33;;;;;25.57;100.00;102116.31;5036597;28;45459;-76
2023/06/24 09:58:47;;;;;;;;;3.67;3.67;;;;;25.60;100.00;102113.50;5035237;28;57614;-76
2023/06/24 10:01:13;;;;;;;;;1.67;1.67;;;;;25.65;100.00;102107.06;5037159;28;45487;-78
2023/06/24 10:03:38;;;;;;;;;5.00;4.00;;;;;25.69;100.00;102106.06;5035669;28;46438;-78
2023/06/24 10:06:05;;;;;;;;;4.67;4.00;;;;;25.74;100.00;102109.50;5036627;28;52115;-75
2023/06/24 10:08:31;;;;;;;;;5.33;5.00;;;;;25.77;100.00;102102.19;5036770;28;45368;-78
2023/06/24 10:10:57;;;;;;;;;5.67;4.67;;;;;25.81;100.00;102095.75;5036244;28;45487;-79
2023/06/24 10:13:23;;;;;;;;;6.00;5.00;;;;;25.83;100.00;102093.88;5036925;28;46389;-78
2023/06/24 10:15:49;;;;;;;;;3.00;3.00;;;;;25.88;100.00;102096.41;5019434;28;45479;-78
2023/06/24 10:18:35;;;;;;;;;4.67;4.00;;;;;25.91;100.00;102093.63;5035974;28;45549;-78
2023/06/24 10:21:02;;;;;;;;;3.00;3.00;;;;;25.93;100.00;102080.91;5015322;28;45466;-76
2023/06/24 10:23:41;;;;;;;;;5.67;5.67;;;;;25.98;100.00;102086.19;5036613;28;46646;-75
2023/06/24 10:26:11;;;;;;;;;4.00;4.00;;;;;25.99;100.00;102074.41;5034657;28;45507;-80
2023/06/24 10:29:04;;;;;;;;;5.00;5.00;;;;;26.03;100.00;102079.66;5024582;28;45496;-76
2023/06/24 10:31:39;;;;;;;;;5.00;4.00;;;;;26.08;100.00;102066.88;5036358;28;45563;-75
2023/06/24 10:34:20;;;;;;;;;8.00;8.00;;;;;26.09;100.00;102063.22;5036506;28;46635;-75
2023/06/24 10:37:12;;;;;;;;;4.33;4.33;;;;;26.13;100.00;102053.19;5037199;28;45434;-76
2023/06/24 10:39:57;;;;;;;;;5.00;5.00;;;;;26.19;100.00;102052.97;5037566;28;45433;-78
2023/06/24 10:42:41;;;;;;;;;6.00;6.00;;;;;26.23;100.00;102048.34;5035279;28;45576;-77
2023/06/24 10:45:09;;;;;;;;;5.00;5.00;;;;;26.29;100.00;102057.13;5035744;28;47471;-79
2023/06/24 10:47:39;;;;;;;;;21.00;15.00;;;;;26.33;100.00;102056.09;5036067;28;45296;-79
2023/06/24 10:50:05;;;;;;;;;2.33;2.33;;;;;26.38;100.00;102043.25;5028808;28;45312;-79
2023/06/24 10:52:31;;;;;;;;;6.33;4.67;;;;;26.46;100.00;102044.84;5037156;28;45332;-79
2023/06/24 10:54:57;;;;;;;;;7.00;6.00;;;;;26.51;100.00;102040.13;5034348;28;47537;-79
2023/06/24 10:57:26;;;;;;;;;7.00;5.67;;;;;26.56;100.00;102030.00;5035020;28;45366;-80
2023/06/24 10:59:53;;;;;;;;;6.00;5.67;;;;;26.66;100.00;102025.16;5036071;28;45503;-79
2023/06/24 11:02:21;;;;;;;;;6.33;6.00;;;;;26.75;100.00;102025.69;5035123;28;45458;-79
2023/06/24 11:04:50;;;;;;;;;7.00;6.00;;;;;26.82;100.00;102029.06;5033611;28;47681;-79
2023/06/24 11:07:21;;;;;;;;;6.00;6.00;;;;;26.93;100.00;102034.94;5040378;28;45436;-80
2023/06/24 11:09:50;;;;;;;;;7.67;6.33;;;;;27.01;99.99;102018.41;5037094;28;45401;-80
2023/06/24 11:12:16;;;;;;;;;8.33;7.00;;;;;27.08;100.00;102019.94;5036763;28;45357;-80
2023/06/24 11:14:41;;;;;;;;;4.67;4.67;;;;;27.14;100.00;102012.44;5036278;28;46643;-80
2023/06/24 11:17:06;;;;;;;;;5.33;5.33;;;;;27.23;100.00;102019.34;5031742;28;68295;-79
2023/06/24 11:19:32;;;;;;;;;6.00;6.00;;;;;27.30;100.00;102017.28;5038887;28;45777;-79